sensor_id;sensor_type;location;lat;lon;timestamp;pressure;altitude;pressure_sealevel;temperature;humidity
74716;BME280;63234;37.558;127.058;2022-09-09T00:01:55;100544.38;;;23.04;46.15
74716;BME280;63234;37.558;127.058;2022-09-09T00:04:35;100538.13;;;23.04;46.41
74716;BME280;63234;37.558;127.058;2022-09-09T00:07:12;100536.22;;;23.04;46.29
74716;BME280;63234;37.558;127.058;2022-09-09T00:15:29;100541.13;;;23.02;46.30
74716;BME280;63234;37.558;127.058;2022-09-09T00:18:27;100541.94;;;23.03;46.28
74716;BME280;63234;37.558;127.058;2022-09-09T00:21:08;100534.59;;;23.03;46.42
74716;BME280;63234;37.558;127.058;2022-09-09T00:23:44;100533.81;;;23.03;46.14
74716;BME280;63234;37.558;127.058;2022-09-09T00:31:33;100538.72;;;23.01;46.16
74716;BME280;63234;37.558;127.058;2022-09-09T00:34:20;100525.16;;;23.01;46.24
74716;BME280;63234;37.558;127.058;2022-09-09T00:36:48;100522.75;;;22.99;46.22
74716;BME280;63234;37.558;127.058;2022-09-09T00:39:34;100523.84;;;22.98;46.26
74716;BME280;63234;37.558;127.058;2022-09-09T00:42:23;100520.03;;;22.99;46.24
74716;BME280;63234;37.558;127.058;2022-09-09T00:47:44;100515.41;;;23.00;45.95
74716;BME280;63234;37.558;127.058;2022-09-09T00:58:31;100527.63;;;22.97;46.12
74716;BME280;63234;37.558;127.058;2022-09-09T01:01:11;100533.91;;;22.98;46.17
74716;BME280;63234;37.558;127.058;2022-09-09T01:11:26;100526.25;;;23.00;46.20
74716;BME280;63234;37.558;127.058;2022-09-09T01:14:49;100531.47;;;22.96;46.23
74716;BME280;63234;37.558;127.058;2022-09-09T01:16:54;100545.81;;;22.97;46.16
74716;BME280;63234;37.558;127.058;2022-09-09T01:27:43;100522.88;;;22.89;46.30
74716;BME280;63234;37.558;127.058;2022-09-09T01:30:13;100530.69;;;22.90;46.26
74716;BME280;63234;37.558;127.058;2022-09-09T01:32:42;100522.56;;;22.90;46.22
74716;BME280;63234;37.558;127.058;2022-09-09T01:35:16;100528.78;;;22.91;46.66
74716;BME280;63234;37.558;127.058;2022-09-09T01:37:44;100525.28;;;22.90;46.22
74716;BME280;63234;37.558;127.058;2022-09-09T01:40:10;100526.06;;;22.91;46.69
74716;BME280;63234;37.558;127.058;2022-09-09T01:42:35;100523.94;;;22.88;46.51
74716;BME280;63234;37.558;127.058;2022-09-09T01:45:01;100531.00;;;22.89;46.61
74716;BME280;63234;37.558;127.058;2022-09-09T01:47:26;100525.59;;;22.89;46.30
74716;BME280;63234;37.558;127.058;2022-09-09T01:49:52;100528.78;;;22.91;46.25
74716;BME280;63234;37.558;127.058;2022-09-09T01:52:17;100529.91;;;22.90;46.51
74716;BME280;63234;37.558;127.058;2022-09-09T01:54:43;100527.19;;;22.90;46.11
74716;BME280;63234;37.558;127.058;2022-09-09T02:05:20;100527.47;;;22.88;46.64
74716;BME280;63234;37.558;127.058;2022-09-09T02:07:55;100524.75;;;22.88;46.60
74716;BME280;63234;37.558;127.058;2022-09-09T02:10:31;100529.38;;;22.88;46.15
74716;BME280;63234;37.558;127.058;2022-09-09T02:13:06;100540.22;;;22.88;46.60
74716;BME280;63234;37.558;127.058;2022-09-09T02:18:13;100535.91;;;22.87;46.32
74716;BME280;63234;37.558;127.058;2022-09-09T02:20:41;100540.53;;;22.86;46.44
74716;BME280;63234;37.558;127.058;2022-09-09T02:23:09;100548.66;;;22.86;46.55
74716;BME280;63234;37.558;127.058;2022-09-09T02:25:37;100541.59;;;22.85;46.15
74716;BME280;63234;37.558;127.058;2022-09-09T02:28:06;100543.03;;;22.83;46.30
74716;BME280;63234;37.558;127.058;2022-09-09T02:30:33;100539.47;;;22.82;46.34
74716;BME280;63234;37.558;127.058;2022-09-09T02:33:01;100546.22;;;22.85;46.32
74716;BME280;63234;37.558;127.058;2022-09-09T02:35:30;100539.19;;;22.84;46.17
74716;BME280;63234;37.558;127.058;2022-09-09T02:38:00;100546.81;;;22.82;46.28
74716;BME280;63234;37.558;127.058;2022-09-09T02:40:27;100540.31;;;22.83;46.37
74716;BME280;63234;37.558;127.058;2022-09-09T02:42:54;100532.19;;;22.83;46.06
74716;BME280;63234;37.558;127.058;2022-09-09T02:45:23;100541.38;;;22.82;46.51
74716;BME280;63234;37.558;127.058;2022-09-09T02:48:35;100537.06;;;22.81;46.55
74716;BME280;63234;37.558;127.058;2022-09-09T02:53:23;100537.59;;;22.83;46.33
74716;BME280;63234;37.558;127.058;2022-09-09T02:56:00;100538.69;;;22.82;46.44
74716;BME280;63234;37.558;127.058;2022-09-09T02:58:28;100539.78;;;22.81;46.54
74716;BME280;63234;37.558;127.058;2022-09-09T03:00:53;100535.97;;;22.82;46.15
74716;BME280;63234;37.558;127.058;2022-09-09T03:03:19;100545.44;;;22.84;46.45
74716;BME280;63234;37.558;127.058;2022-09-09T03:05:46;100535.69;;;22.83;46.25
74716;BME280;63234;37.558;127.058;2022-09-09T03:08:12;100543.31;;;22.81;46.25
74716;BME280;63234;37.558;127.058;2022-09-09T03:10:38;100539.78;;;22.81;46.20
74716;BME280;63234;37.558;127.058;2022-09-09T03:13:04;100541.38;;;22.82;45.80
74716;BME280;63234;37.558;127.058;2022-09-09T03:15:31;100550.63;;;22.81;46.33
74716;BME280;63234;37.558;127.058;2022-09-09T03:17:57;100544.69;;;22.79;46.35
74716;BME280;63234;37.558;127.058;2022-09-09T03:20:27;100547.41;;;22.79;46.32
74716;BME280;63234;37.558;127.058;2022-09-09T03:22:53;100560.16;;;22.78;46.65
74716;BME280;63234;37.558;127.058;2022-09-09T03:25:19;100563.66;;;22.79;46.01
74716;BME280;63234;37.558;127.058;2022-09-09T03:27:45;100564.47;;;22.79;46.45
74716;BME280;63234;37.558;127.058;2022-09-09T03:30:10;100566.97;;;22.76;46.61
74716;BME280;63234;37.558;127.058;2022-09-09T03:32:36;100565.34;;;22.75;46.50
74716;BME280;63234;37.558;127.058;2022-09-09T03:35:02;100557.22;;;22.75;46.51
74716;BME280;63234;37.558;127.058;2022-09-09T03:37:27;100565.34;;;22.75;46.37
74716;BME280;63234;37.558;127.058;2022-09-09T03:39:52;100560.22;;;22.73;46.26
74716;BME280;63234;37.558;127.058;2022-09-09T03:42:19;100555.63;;;22.74;46.18
74716;BME280;63234;37.558;127.058;2022-09-09T03:44:46;100563.44;;;22.75;46.42
74716;BME280;63234;37.558;127.058;2022-09-09T03:47:19;100563.44;;;22.75;46.22
74716;BME280;63234;37.558;127.058;2022-09-09T03:49:45;100565.88;;;22.77;45.97
74716;BME280;63234;37.558;127.058;2022-09-09T03:52:11;100563.75;;;22.74;46.23
74716;BME280;63234;37.558;127.058;2022-09-09T03:54:37;100568.88;;;22.75;46.45
74716;BME280;63234;37.558;127.058;2022-09-09T03:57:03;100576.19;;;22.75;45.99
74716;BME280;63234;37.558;127.058;2022-09-09T03:59:29;100574.59;;;22.74;46.21
74716;BME280;63234;37.558;127.058;2022-09-09T04:01:54;100567.28;;;22.74;46.23
74716;BME280;63234;37.558;127.058;2022-09-09T04:04:20;100564.84;;;22.73;46.32
74716;BME280;63234;37.558;127.058;2022-09-09T04:06:46;100568.06;;;22.75;46.11
74716;BME280;63234;37.558;127.058;2022-09-09T04:09:13;100558.59;;;22.72;46.18
74716;BME280;63234;37.558;127.058;2022-09-09T04:11:39;100560.22;;;22.73;46.40
74716;BME280;63234;37.558;127.058;2022-09-09T04:14:04;100557.22;;;22.75;46.39
74716;BME280;63234;37.558;127.058;2022-09-09T04:16:31;100558.59;;;22.72;46.36
74716;BME280;63234;37.558;127.058;2022-09-09T04:18:57;100555.63;;;22.74;45.98
74716;BME280;63234;37.558;127.058;2022-09-09T04:21:23;100558.59;;;22.72;46.26
74716;BME280;63234;37.558;127.058;2022-09-09T04:23:48;100561.63;;;22.71;45.99
74716;BME280;63234;37.558;127.058;2022-09-09T04:26:14;100568.66;;;22.72;46.26
74716;BME280;63234;37.558;127.058;2022-09-09T04:28:39;100555.09;;;22.72;46.06
74716;BME280;63234;37.558;127.058;2022-09-09T04:31:25;100561.63;;;22.71;46.31
74716;BME280;63234;37.558;127.058;2022-09-09T04:33:51;100571.38;;;22.72;46.04
74716;BME280;63234;37.558;127.058;2022-09-09T04:36:17;100574.06;;;22.72;45.87
74716;BME280;63234;37.558;127.058;2022-09-09T04:38:44;100577.59;;;22.72;46.25
74716;BME280;63234;37.558;127.058;2022-09-09T04:41:10;100580.59;;;22.71;46.25
74716;BME280;63234;37.558;127.058;2022-09-09T04:43:36;100575.97;;;22.71;46.12
74716;BME280;63234;37.558;127.058;2022-09-09T04:46:02;100580.28;;;22.72;45.97
74716;BME280;63234;37.558;127.058;2022-09-09T04:48:27;100580.28;;;22.72;46.25
74716;BME280;63234;37.558;127.058;2022-09-09T04:53:22;100580.03;;;22.74;46.26
74716;BME280;63234;37.558;127.058;2022-09-09T04:55:47;100588.66;;;22.76;45.91
74716;BME280;63234;37.558;127.058;2022-09-09T04:58:14;100597.59;;;22.76;45.96
74716;BME280;63234;37.558;127.058;2022-09-09T05:00:39;100597.31;;;22.78;45.57
74716;BME280;63234;37.558;127.058;2022-09-09T05:03:05;100600.53;;;22.80;46.06
74716;BME280;63234;37.558;127.058;2022-09-09T05:05:32;100604.34;;;22.79;45.90
74716;BME280;63234;37.558;127.058;2022-09-09T05:08:02;100598.63;;;22.80;45.82
74716;BME280;63234;37.558;127.058;2022-09-09T05:10:28;100610.28;;;22.81;45.93
74716;BME280;63234;37.558;127.058;2022-09-09T05:12:53;100606.47;;;22.82;45.87
74716;BME280;63234;37.558;127.058;2022-09-09T05:15:19;100606.47;;;22.82;46.00
74716;BME280;63234;37.558;127.058;2022-09-09T05:17:45;100608.09;;;22.83;45.76
74716;BME280;63234;37.558;127.058;2022-09-09T05:20:11;100599.13;;;22.82;45.74
74716;BME280;63234;37.558;127.058;2022-09-09T05:22:37;100597.25;;;22.83;45.79
74716;BME280;63234;37.558;127.058;2022-09-09T05:25:03;100599.97;;;22.83;45.63
74716;BME280;63234;37.558;127.058;2022-09-09T05:27:28;100596.16;;;22.84;45.81
74716;BME280;63234;37.558;127.058;2022-09-09T05:29:56;100588.22;;;22.87;45.59
74716;BME280;63234;37.558;127.058;2022-09-09T05:32:22;100598.78;;;22.89;45.37
74716;BME280;63234;37.558;127.058;2022-09-09T05:34:48;100601.50;;;22.89;45.69
74716;BME280;63234;37.558;127.058;2022-09-09T05:37:13;100591.47;;;22.89;45.56
74716;BME280;63234;37.558;127.058;2022-09-09T05:39:38;100596.88;;;22.89;45.45
74716;BME280;63234;37.558;127.058;2022-09-09T05:42:04;100595.78;;;22.90;45.69
74716;BME280;63234;37.558;127.058;2022-09-09T05:44:30;100591.47;;;22.89;45.57
74716;BME280;63234;37.558;127.058;2022-09-09T05:46:55;100587.38;;;22.92;45.50
74716;BME280;63234;37.558;127.058;2022-09-09T05:49:21;100591.69;;;22.93;45.35
74716;BME280;63234;37.558;127.058;2022-09-09T05:51:46;100587.88;;;22.94;45.43
74716;BME280;63234;37.558;127.058;2022-09-09T05:54:13;100586.81;;;22.95;45.38
74716;BME280;63234;37.558;127.058;2022-09-09T05:56:40;100595.75;;;22.96;45.08
74716;BME280;63234;37.558;127.058;2022-09-09T05:59:06;100603.56;;;22.97;45.08
74716;BME280;63234;37.558;127.058;2022-09-09T06:01:33;100601.97;;;22.96;45.48
74716;BME280;63234;37.558;127.058;2022-09-09T06:03:59;100606.81;;;22.99;45.30
74716;BME280;63234;37.558;127.058;2022-09-09T06:06:26;100605.69;;;23.00;45.33
74716;BME280;63234;37.558;127.058;2022-09-09T06:08:56;100620.38;;;22.99;45.29
74716;BME280;63234;37.558;127.058;2022-09-09T06:11:28;100608.94;;;23.02;45.36
74716;BME280;63234;37.558;127.058;2022-09-09T06:13:56;100614.94;;;22.99;45.08
74716;BME280;63234;37.558;127.058;2022-09-09T06:16:23;100624.69;;;23.00;45.44
74716;BME280;63234;37.558;127.058;2022-09-09T06:18:49;100628.50;;;22.99;45.43
74716;BME280;63234;37.558;127.058;2022-09-09T06:21:18;100626.81;;;23.03;45.14
74716;BME280;63234;37.558;127.058;2022-09-09T06:23:44;100627.94;;;23.02;45.01
74716;BME280;63234;37.558;127.058;2022-09-09T06:26:12;100624.94;;;23.04;45.44
74716;BME280;63234;37.558;127.058;2022-09-09T06:28:37;100626.53;;;23.05;45.47
74716;BME280;63234;37.558;127.058;2022-09-09T06:31:06;100615.97;;;23.03;45.43
74716;BME280;63234;37.558;127.058;2022-09-09T06:33:34;100623.25;;;23.08;44.99
74716;BME280;63234;37.558;127.058;2022-09-09T06:36:00;100622.94;;;23.09;44.71
74716;BME280;63234;37.558;127.058;2022-09-09T06:38:26;100619.13;;;23.10;45.05
74716;BME280;63234;37.558;127.058;2022-09-09T06:40:57;100633.13;;;23.18;45.01
74716;BME280;63234;37.558;127.058;2022-09-09T06:43:24;100632.03;;;23.19;44.68
74716;BME280;63234;37.558;127.058;2022-09-09T06:46:04;100645.00;;;23.22;44.87
74716;BME280;63234;37.558;127.058;2022-09-09T06:48:30;100647.13;;;23.25;44.97
74716;BME280;63234;37.558;127.058;2022-09-09T06:51:05;100646.25;;;23.10;45.88
74716;BME280;63234;37.558;127.058;2022-09-09T06:53:33;100643.44;;;22.97;46.35
74716;BME280;63234;37.558;127.058;2022-09-09T06:58:40;100637.97;;;23.02;46.62
74716;BME280;63234;37.558;127.058;2022-09-09T07:01:13;100636.06;;;23.02;46.71
74716;BME280;63234;37.558;127.058;2022-09-09T07:03:40;100635.69;;;23.09;47.08
74716;BME280;63234;37.558;127.058;2022-09-09T07:06:06;100629.88;;;22.97;47.49
74716;BME280;63234;37.558;127.058;2022-09-09T07:08:33;100628.34;;;23.09;47.11
74716;BME280;63234;37.558;127.058;2022-09-09T07:11:06;100622.66;;;23.30;46.44
74716;BME280;63234;37.558;127.058;2022-09-09T07:13:33;100628.97;;;23.25;46.73
74716;BME280;63234;37.558;127.058;2022-09-09T07:16:10;100635.09;;;23.31;46.74
74716;BME280;63234;37.558;127.058;2022-09-09T07:18:36;100642.25;;;22.60;48.97
74716;BME280;63234;37.558;127.058;2022-09-09T07:21:03;100640.59;;;22.40;49.28
74716;BME280;63234;37.558;127.058;2022-09-09T07:23:30;100644.28;;;22.25;49.80
74716;BME280;63234;37.558;127.058;2022-09-09T07:25:56;100631.31;;;22.46;49.29
74716;BME280;63234;37.558;127.058;2022-09-09T07:28:22;100638.16;;;22.38;49.56
74716;BME280;63234;37.558;127.058;2022-09-09T07:30:59;100638.44;;;22.61;48.88
74716;BME280;63234;37.558;127.058;2022-09-09T07:33:29;100643.75;;;22.95;48.07
74716;BME280;63234;37.558;127.058;2022-09-09T07:36:07;100644.63;;;23.09;47.94
74716;BME280;63234;37.558;127.058;2022-09-09T07:38:41;100641.03;;;23.52;47.34
74716;BME280;63234;37.558;127.058;2022-09-09T07:41:10;100641.53;;;23.73;47.04
74716;BME280;63234;37.558;127.058;2022-09-09T07:43:39;100641.34;;;24.02;46.16
74716;BME280;63234;37.558;127.058;2022-09-09T07:46:06;100645.63;;;24.49;45.05
74716;BME280;63234;37.558;127.058;2022-09-09T07:48:32;100650.88;;;24.87;44.25
74716;BME280;63234;37.558;127.058;2022-09-09T07:53:31;100647.16;;;24.69;44.62
74716;BME280;63234;37.558;127.058;2022-09-09T07:56:03;100656.63;;;24.58;44.61
74716;BME280;63234;37.558;127.058;2022-09-09T07:58:28;100665.44;;;26.54;40.55
74716;BME280;63234;37.558;127.058;2022-09-09T08:00:54;100658.06;;;28.37;37.22
74716;BME280;63234;37.558;127.058;2022-09-09T08:03:19;100656.03;;;29.35;34.88
74716;BME280;63234;37.558;127.058;2022-09-09T08:05:47;100660.91;;;29.09;35.44
74716;BME280;63234;37.558;127.058;2022-09-09T08:08:12;100660.78;;;30.13;33.73
74716;BME280;63234;37.558;127.058;2022-09-09T08:10:37;100669.56;;;31.29;31.83
74716;BME280;63234;37.558;127.058;2022-09-09T08:13:03;100665.28;;;32.16;30.37
74716;BME280;63234;37.558;127.058;2022-09-09T08:15:28;100667.47;;;33.06;29.36
74716;BME280;63234;37.558;127.058;2022-09-09T08:17:56;100670.56;;;33.04;28.80
74716;BME280;63234;37.558;127.058;2022-09-09T08:20:21;100674.06;;;33.21;28.63
74716;BME280;63234;37.558;127.058;2022-09-09T08:22:48;100671.16;;;33.72;28.26
74716;BME280;63234;37.558;127.058;2022-09-09T08:25:15;100672.72;;;34.12;27.22
74716;BME280;63234;37.558;127.058;2022-09-09T08:27:40;100668.66;;;34.06;27.44
74716;BME280;63234;37.558;127.058;2022-09-09T08:30:06;100677.66;;;32.89;28.51
74716;BME280;63234;37.558;127.058;2022-09-09T08:32:31;100668.34;;;31.55;30.39
74716;BME280;63234;37.558;127.058;2022-09-09T08:36:23;100674.16;;;31.25;31.25
74716;BME280;63234;37.558;127.058;2022-09-09T08:38:50;100671.16;;;31.43;31.29
74716;BME280;63234;37.558;127.058;2022-09-09T08:44:18;100674.31;;;31.57;30.43
74716;BME280;63234;37.558;127.058;2022-09-09T08:46:56;100670.78;;;30.30;32.63
74716;BME280;63234;37.558;127.058;2022-09-09T08:52:13;100682.94;;;28.53;35.37
74716;BME280;63234;37.558;127.058;2022-09-09T08:54:41;100678.91;;;28.03;36.38
74716;BME280;63234;37.558;127.058;2022-09-09T08:57:12;100679.75;;;27.60;37.19
74716;BME280;63234;37.558;127.058;2022-09-09T08:59:38;100674.94;;;27.40;37.95
74716;BME280;63234;37.558;127.058;2022-09-09T09:05:05;100679.13;;;26.80;39.20
74716;BME280;63234;37.558;127.058;2022-09-09T09:12:55;100689.56;;;26.47;40.04
74716;BME280;63234;37.558;127.058;2022-09-09T09:15:28;100689.69;;;26.64;39.90
74716;BME280;63234;37.558;127.058;2022-09-09T09:17:55;100686.06;;;26.95;39.36
74716;BME280;63234;37.558;127.058;2022-09-09T09:20:31;100690.69;;;27.60;38.25
74716;BME280;63234;37.558;127.058;2022-09-09T09:23:02;100687.47;;;28.40;36.99
74716;BME280;63234;37.558;127.058;2022-09-09T09:25:35;100685.25;;;29.31;35.11
